createdAt,value
2018-09-20T00:00:27.412Z,21.30
2018-09-20T00:02:55.194Z,21.30
2018-09-20T00:05:22.883Z,21.40
2018-09-20T00:10:18.120Z,21.50
2018-09-20T00:12:45.788Z,21.60
2018-09-20T00:15:13.576Z,21.60
2018-09-20T00:22:36.491Z,21.60
2018-09-20T00:25:04.463Z,21.60
2018-09-20T00:32:27.237Z,21.60
2018-09-20T00:34:54.884Z,21.70
2018-09-20T00:37:22.675Z,21.60
2018-09-20T00:39:50.331Z,21.60
2018-09-20T00:42:17.988Z,21.60
2018-09-20T00:44:45.633Z,21.60
2018-09-20T00:47:13.291Z,21.60
2018-09-20T00:49:40.899Z,21.60
2018-09-20T00:52:08.537Z,21.60
2018-09-20T00:54:36.188Z,21.60
2018-09-20T00:57:04.112Z,21.60
2018-09-20T00:59:31.736Z,21.60
2018-09-20T01:01:59.568Z,21.60
2018-09-20T01:04:27.196Z,21.60
2018-09-20T01:06:54.901Z,21.60
2018-09-20T01:09:22.538Z,21.50
2018-09-20T01:14:17.715Z,21.50
2018-09-20T01:16:45.369Z,21.50
2018-09-20T01:19:13.068Z,21.50
2018-09-20T01:22:43.610Z,21.50
2018-09-20T01:25:11.276Z,21.50
2018-09-20T01:32:34.143Z,21.10
2018-09-20T01:42:24.419Z,20.60
2018-09-20T01:44:52.092Z,20.50
2018-09-20T01:47:19.768Z,20.50
2018-09-20T01:52:14.952Z,20.30
2018-09-20T01:54:42.702Z,20.20
2018-09-20T01:57:10.323Z,20.20
2018-09-20T02:04:33.059Z,20.20
2018-09-20T02:09:28.330Z,20.00
2018-09-20T02:14:23.503Z,20.00
2018-09-20T02:16:51.154Z,19.90
2018-09-20T02:24:14.846Z,19.70
2018-09-20T02:26:42.484Z,19.60
2018-09-20T02:31:37.695Z,19.60
2018-09-20T02:34:05.407Z,19.50
2018-09-20T02:41:29.196Z,19.50
2018-09-20T02:43:56.846Z,19.40
2018-09-20T02:56:14.662Z,19.30
2018-09-20T03:01:09.903Z,19.30
2018-09-20T03:03:37.574Z,19.30
2018-09-20T03:06:05.284Z,19.30
2018-09-20T03:11:00.435Z,19.30
2018-09-20T03:15:55.675Z,19.20
2018-09-20T03:18:23.315Z,19.20
2018-09-20T03:20:50.955Z,19.20
2018-09-20T03:23:18.560Z,19.20
2018-09-20T03:25:46.208Z,19.20
2018-09-20T03:28:13.970Z,19.20
2018-09-20T03:33:09.286Z,19.20
2018-09-20T03:35:36.924Z,19.20
2018-09-20T03:42:59.875Z,19.10
2018-09-20T03:45:27.542Z,19.00
2018-09-20T03:52:50.285Z,18.90
2018-09-20T03:55:17.948Z,18.90
2018-09-20T03:57:45.570Z,18.80
2018-09-20T04:05:08.543Z,18.70
2018-09-20T04:07:36.119Z,18.70
2018-09-20T04:12:31.411Z,18.70
2018-09-20T04:17:26.550Z,18.60
2018-09-20T04:22:22.031Z,18.50
2018-09-20T04:29:44.707Z,18.30
2018-09-20T04:34:39.878Z,18.30
2018-09-20T04:37:07.511Z,18.30
2018-09-20T04:46:58.272Z,18.10
2018-09-20T04:49:25.907Z,18.10
2018-09-20T04:51:53.494Z,18.00
2018-09-20T04:54:21.094Z,18.00
2018-09-20T05:01:43.780Z,17.80
2018-09-20T05:06:38.934Z,17.80
2018-09-20T05:09:09.823Z,17.70
2018-09-20T05:26:24.650Z,18.30
2018-09-20T05:28:52.306Z,18.60
2018-09-20T05:33:47.519Z,20.50
2018-09-20T05:36:15.237Z,21.30
2018-09-20T05:38:42.798Z,21.90
2018-09-20T05:43:37.966Z,23.40
2018-09-20T05:46:05.631Z,24.10
2018-09-20T05:48:33.245Z,24.80
2018-09-20T05:51:00.891Z,25.50
2018-09-20T05:53:28.513Z,25.50
2018-09-20T05:55:56.127Z,26.00
2018-09-20T05:58:23.736Z,25.90
2018-09-20T06:00:51.370Z,26.40
2018-09-20T06:03:18.984Z,26.40
2018-09-20T06:05:46.661Z,26.30
2018-09-20T06:08:14.246Z,25.90
2018-09-20T06:10:41.886Z,23.00
2018-09-20T06:13:09.523Z,26.40
2018-09-20T06:15:37.140Z,27.30
2018-09-20T06:18:04.879Z,28.10
2018-09-20T06:20:32.511Z,28.80
2018-09-20T06:23:00.183Z,29.20
2018-09-20T06:25:27.807Z,30.60
2018-09-20T06:27:55.466Z,30.70
2018-09-20T06:30:23.106Z,31.00
2018-09-20T06:32:50.769Z,30.20
2018-09-20T06:35:19.595Z,28.90
2018-09-20T06:37:47.372Z,26.50
2018-09-20T06:40:15.153Z,25.90
2018-09-20T06:42:42.763Z,25.50
2018-09-20T06:47:37.978Z,24.90
2018-09-20T06:50:05.717Z,24.80
2018-09-20T06:52:33.330Z,24.80
2018-09-20T06:57:33.147Z,24.80
2018-09-20T07:02:28.351Z,24.60
2018-09-20T07:04:56.037Z,24.50
2018-09-20T07:07:23.632Z,24.60
2018-09-20T07:12:18.964Z,28.00
2018-09-20T07:14:46.926Z,30.00
2018-09-20T07:17:14.695Z,30.10
2018-09-20T07:19:42.508Z,31.00
2018-09-20T07:22:10.234Z,32.50
2018-09-20T07:24:37.872Z,33.20
2018-09-20T07:27:05.578Z,34.10
2018-09-20T07:29:33.225Z,34.00
2018-09-20T07:32:00.862Z,34.10
2018-09-20T07:34:28.492Z,33.50
2018-09-20T07:36:56.124Z,33.10
2018-09-20T07:39:23.911Z,34.60
2018-09-20T07:41:51.550Z,34.90
2018-09-20T07:44:19.192Z,35.50
2018-09-20T07:46:46.856Z,36.00
2018-09-20T07:49:14.558Z,37.00
2018-09-20T07:51:42.198Z,37.90
2018-09-20T07:54:09.812Z,38.30
2018-09-20T07:56:37.463Z,38.30
2018-09-20T07:59:05.129Z,38.20
2018-09-20T08:01:32.830Z,34.40
2018-09-20T08:04:00.503Z,33.10
2018-09-20T08:06:28.168Z,32.30
2018-09-20T08:08:55.771Z,32.00
2018-09-20T08:11:23.359Z,31.80
2018-09-20T08:16:18.518Z,30.60
2018-09-20T08:18:46.115Z,30.20
2018-09-20T08:21:13.783Z,28.70
2018-09-20T08:23:41.409Z,28.00
2018-09-20T08:26:09.143Z,27.80
2018-09-20T08:28:36.774Z,27.70
2018-09-20T08:31:04.426Z,28.10
2018-09-20T08:35:59.582Z,27.80
2018-09-20T08:48:17.254Z,28.10
2018-09-20T08:58:32.728Z,26.80
2018-09-20T09:03:28.590Z,27.10
2018-09-20T09:05:56.286Z,27.30
2018-09-20T09:08:24.119Z,27.60
2018-09-20T09:10:51.845Z,28.10
2018-09-20T09:13:19.492Z,28.30
2018-09-20T09:15:47.128Z,28.40
2018-09-20T09:18:14.710Z,28.60
2018-09-20T09:20:42.591Z,28.60
2018-09-20T09:23:10.223Z,28.30
2018-09-20T09:25:37.882Z,28.50
2018-09-20T09:28:05.746Z,28.60
2018-09-20T09:30:33.379Z,28.80
2018-09-20T09:33:01.001Z,28.60
2018-09-20T09:35:28.635Z,28.60
2018-09-20T09:37:56.278Z,28.30
2018-09-20T09:40:23.902Z,28.20
2018-09-20T09:42:51.563Z,28.30
2018-09-20T09:45:19.406Z,28.60
2018-09-20T09:47:47.108Z,28.70
2018-09-20T09:50:14.836Z,28.80
2018-09-20T09:52:42.971Z,28.80
2018-09-20T09:55:10.584Z,28.70
2018-09-20T09:57:38.254Z,27.60
2018-09-20T10:00:05.993Z,28.30
2018-09-20T10:02:33.659Z,28.30
2018-09-20T10:05:01.283Z,28.50
2018-09-20T10:09:56.517Z,28.70
2018-09-20T10:12:24.247Z,28.60
2018-09-20T10:14:51.851Z,28.60
2018-09-20T10:17:19.467Z,28.60
2018-09-20T10:19:47.128Z,28.80
2018-09-20T10:22:14.735Z,28.70
2018-09-20T10:24:42.362Z,28.50
2018-09-20T10:27:09.999Z,28.50
2018-09-20T10:29:37.598Z,28.40
2018-09-20T10:32:05.233Z,28.60
2018-09-20T10:34:32.845Z,28.90
2018-09-20T10:37:00.464Z,28.80
2018-09-20T10:39:28.779Z,28.60
2018-09-20T10:41:56.422Z,28.60
2018-09-20T10:44:24.374Z,28.70
2018-09-20T10:46:52.033Z,28.70
2018-09-20T10:49:19.669Z,28.50
2018-09-20T10:51:47.555Z,28.40
2018-09-20T10:54:15.176Z,28.50
2018-09-20T10:56:42.790Z,28.50
2018-09-20T10:59:10.467Z,28.40
2018-09-20T11:01:38.101Z,28.50
2018-09-20T11:04:05.758Z,27.80
2018-09-20T11:06:33.565Z,27.80
2018-09-20T11:11:28.841Z,27.80
2018-09-20T11:13:56.484Z,27.90
2018-09-20T11:16:24.110Z,27.80
2018-09-20T11:18:51.790Z,27.80
2018-09-20T11:21:19.459Z,27.60
2018-09-20T11:23:47.071Z,27.60
2018-09-20T11:26:14.879Z,27.60
2018-09-20T11:28:42.468Z,27.60
2018-09-20T11:31:11.539Z,27.70
2018-09-20T11:33:39.193Z,27.40
2018-09-20T11:36:06.905Z,27.30
2018-09-20T11:41:52.834Z,27.60
2018-09-20T11:46:47.987Z,27.50
2018-09-20T11:54:10.660Z,27.70
2018-09-20T11:56:38.288Z,27.70
2018-09-20T11:59:06.265Z,27.70
2018-09-20T12:01:33.950Z,27.80
2018-09-20T12:04:01.571Z,27.90
2018-09-20T12:06:29.203Z,28.00
2018-09-20T12:13:52.345Z,27.40
2018-09-20T12:16:20.091Z,27.50
2018-09-20T12:18:47.747Z,27.50
2018-09-20T12:23:43.008Z,27.80
2018-09-20T12:28:38.199Z,28.10
2018-09-20T12:31:05.891Z,28.10
2018-09-20T12:33:33.515Z,28.20
2018-09-20T12:36:01.349Z,28.20
2018-09-20T12:38:29.024Z,28.30
2018-09-20T12:40:56.878Z,28.40
2018-09-20T12:43:24.791Z,28.20
2018-09-20T12:45:52.547Z,28.30
2018-09-20T12:48:20.289Z,28.20
2018-09-20T12:53:15.675Z,28.10
2018-09-20T13:00:38.886Z,28.60
2018-09-20T13:03:06.625Z,28.30
2018-09-20T13:05:34.712Z,28.40
2018-09-20T13:10:30.387Z,28.40
2018-09-20T13:12:58.148Z,28.40
2018-09-20T13:15:25.838Z,28.30
2018-09-20T13:20:21.125Z,28.10
2018-09-20T13:22:48.847Z,28.00
2018-09-20T13:25:16.485Z,28.20
2018-09-20T13:27:44.703Z,28.20
2018-09-20T13:30:12.436Z,28.30
2018-09-20T13:32:40.090Z,28.20
2018-09-20T13:35:07.770Z,28.10
2018-09-20T13:37:35.494Z,28.20
2018-09-20T13:44:58.283Z,28.30
2018-09-20T13:47:25.949Z,28.30
2018-09-20T13:54:48.767Z,28.30
2018-09-20T13:57:16.481Z,28.40
2018-09-20T14:02:11.766Z,28.40
2018-09-20T14:09:34.648Z,28.30
2018-09-20T14:16:57.513Z,28.30
2018-09-20T14:19:25.258Z,28.10
2018-09-20T14:21:52.911Z,28.20
2018-09-20T14:26:48.099Z,28.20
2018-09-20T14:31:43.475Z,28.20
2018-09-20T14:39:08.050Z,28.30
2018-09-20T14:41:35.839Z,28.20
2018-09-20T14:58:48.923Z,28.50
2018-09-20T15:03:44.129Z,28.10
2018-09-20T15:06:11.770Z,28.20
2018-09-20T15:13:34.523Z,28.20
2018-09-20T15:25:52.422Z,28.20
2018-09-20T15:28:20.063Z,28.10
2018-09-20T15:30:48.095Z,28.10
2018-09-20T15:33:15.778Z,28.10
2018-09-20T15:35:43.425Z,28.10
2018-09-20T15:43:06.303Z,27.90
2018-09-20T15:45:33.975Z,28.00
2018-09-20T15:50:29.232Z,27.90
2018-09-20T15:55:24.523Z,27.90
2018-09-20T15:57:52.188Z,27.80
2018-09-20T16:02:47.334Z,27.80
2018-09-20T16:05:15.031Z,27.70
2018-09-20T16:17:33.154Z,27.40
2018-09-20T16:22:28.422Z,27.30
2018-09-20T16:24:56.084Z,27.30
2018-09-20T16:27:23.697Z,27.20
2018-09-20T16:30:16.342Z,27.20
2018-09-20T16:32:59.439Z,27.10
2018-09-20T16:38:17.358Z,27.00
2018-09-20T16:40:45.964Z,27.00
2018-09-20T16:43:13.619Z,26.90
2018-09-20T16:53:04.006Z,26.50
2018-09-20T17:00:26.679Z,26.20
2018-09-20T17:05:21.839Z,25.90
2018-09-20T17:10:17.030Z,25.70
2018-09-20T17:15:12.449Z,25.50
2018-09-20T17:20:07.596Z,25.30
2018-09-20T17:32:25.530Z,25.00
2018-09-20T17:34:53.443Z,25.00
2018-09-20T17:37:21.754Z,24.90
2018-09-20T17:39:50.535Z,24.90
2018-09-20T17:42:19.054Z,24.80
2018-09-20T17:44:47.410Z,24.70
2018-09-20T17:49:42.728Z,24.60
2018-09-20T18:04:35.594Z,24.20
2018-09-20T18:07:03.270Z,24.10
2018-09-20T18:11:58.507Z,24.00
2018-09-20T18:14:26.148Z,23.90
2018-09-20T18:16:53.833Z,23.80
2018-09-20T18:24:18.125Z,23.60
2018-09-20T18:36:41.398Z,23.30
2018-09-20T18:39:11.903Z,23.20
2018-09-20T18:41:41.133Z,23.10
2018-09-20T18:46:37.507Z,23.00
2018-09-20T18:49:07.354Z,22.90
2018-09-20T18:51:35.111Z,22.80
2018-09-20T18:54:02.831Z,22.80
2018-09-20T18:56:30.543Z,22.70
2018-09-20T19:16:32.852Z,22.40
2018-09-20T19:21:29.493Z,22.30
2018-09-20T19:23:57.917Z,22.10
2018-09-20T19:26:25.587Z,22.10
2018-09-20T19:28:53.339Z,22.00
2018-09-20T19:31:21.202Z,22.00
2018-09-20T19:36:17.391Z,22.00
2018-09-20T19:43:42.008Z,22.00
2018-09-20T19:46:09.859Z,22.00
2018-09-20T19:48:38.230Z,22.00
2018-09-20T19:56:03.024Z,21.90
2018-09-20T19:58:30.727Z,21.80
2018-09-20T20:00:58.344Z,21.80
2018-09-20T20:25:41.019Z,21.40
2018-09-20T20:28:09.115Z,21.20
2018-09-20T20:35:32.347Z,21.20
2018-09-20T20:37:59.963Z,21.20
2018-09-20T20:47:53.256Z,21.10
2018-09-20T20:50:21.815Z,21.00
2018-09-20T20:55:18.720Z,21.00
2018-09-20T20:57:47.289Z,21.00
2018-09-20T21:00:15.960Z,21.00
2018-09-20T21:02:44.114Z,21.00
2018-09-20T21:05:12.638Z,20.90
2018-09-20T21:10:08.767Z,20.80
2018-09-20T21:15:05.156Z,20.70
2018-09-20T21:17:33.321Z,20.60
2018-09-20T21:22:31.157Z,24.70
2018-09-20T21:27:27.166Z,20.80
2018-09-20T21:32:22.731Z,20.80
2018-09-20T21:34:50.836Z,20.80
2018-09-20T21:37:18.490Z,20.90
2018-09-20T21:39:46.149Z,20.90
2018-09-20T21:42:13.783Z,20.90
2018-09-20T21:44:41.392Z,20.90
2018-09-20T21:47:09.054Z,21.00
2018-09-20T21:49:37.185Z,21.00
2018-09-20T21:52:04.848Z,21.00
2018-09-20T21:54:32.467Z,21.00
2018-09-20T21:57:00.166Z,21.00
2018-09-20T21:59:27.886Z,21.00
2018-09-20T22:02:00.863Z,21.00
2018-09-20T22:04:28.606Z,21.00
2018-09-20T22:06:56.395Z,21.10
2018-09-20T22:09:24.139Z,21.10
2018-09-20T22:11:51.835Z,21.10
2018-09-20T22:14:19.475Z,21.10
2018-09-20T22:16:47.496Z,21.20
2018-09-20T22:19:15.247Z,21.20
2018-09-20T22:21:42.907Z,21.20
2018-09-20T22:24:10.546Z,21.30
2018-09-20T22:29:05.819Z,21.40
2018-09-20T22:31:33.431Z,21.40
2018-09-20T22:34:02.073Z,21.50
2018-09-20T22:36:29.715Z,21.50
2018-09-20T22:38:57.440Z,21.50
2018-09-20T22:41:25.126Z,21.50
2018-09-20T22:43:52.979Z,21.40
2018-09-20T22:48:48.470Z,21.20
2018-09-20T22:51:16.149Z,21.10
2018-09-20T22:53:43.753Z,21.20
2018-09-20T22:56:11.359Z,21.20
2018-09-20T22:58:39.003Z,21.30
2018-09-20T23:03:34.172Z,21.30
2018-09-20T23:06:01.796Z,21.30
2018-09-20T23:08:29.413Z,21.30
2018-09-20T23:10:57.047Z,21.40
2018-09-20T23:15:52.305Z,21.40
2018-09-20T23:18:20.062Z,21.40
2018-09-20T23:20:47.767Z,21.40
2018-09-20T23:25:43.118Z,21.40
2018-09-20T23:28:10.738Z,21.30
2018-09-20T23:30:38.481Z,21.30
2018-09-20T23:33:06.110Z,21.40
2018-09-20T23:35:33.742Z,21.40
2018-09-20T23:38:01.376Z,21.40
2018-09-20T23:42:56.550Z,21.30
2018-09-20T23:45:24.196Z,21.30
2018-09-20T23:47:51.916Z,21.30
2018-09-20T23:50:19.606Z,21.20
2018-09-20T23:55:14.854Z,21.10
2018-09-20T23:57:42.506Z,21.00
